sensor_id;sensor_type;location;lat;lon;timestamp;temperature;humidity
1355;DHT22;671;48.972;9.276;2022-12-07T00:01:38;6.00;99.90
1355;DHT22;671;48.972;9.276;2022-12-07T00:04:06;6.00;99.90
1355;DHT22;671;48.972;9.276;2022-12-07T00:06:36;6.00;99.90
1355;DHT22;671;48.972;9.276;2022-12-07T00:09:04;5.90;99.90
1355;DHT22;671;48.972;9.276;2022-12-07T00:11:31;5.90;99.90
1355;DHT22;671;48.972;9.276;2022-12-07T00:14:00;5.90;99.90
1355;DHT22;671;48.972;9.276;2022-12-07T00:16:29;5.80;99.90
1355;DHT22;671;48.972;9.276;2022-12-07T00:18:56;5.80;99.90
1355;DHT22;671;48.972;9.276;2022-12-07T00:21:26;5.80;99.90
1355;DHT22;671;48.972;9.276;2022-12-07T00:23:54;5.80;99.90
1355;DHT22;671;48.972;9.276;2022-12-07T00:26:22;5.70;99.90
1355;DHT22;671;48.972;9.276;2022-12-07T00:28:53;5.70;99.90
1355;DHT22;671;48.972;9.276;2022-12-07T00:31:22;5.70;99.90
1355;DHT22;671;48.972;9.276;2022-12-07T00:33:49;5.80;99.90
1355;DHT22;671;48.972;9.276;2022-12-07T00:36:19;5.80;99.90
1355;DHT22;671;48.972;9.276;2022-12-07T00:38:46;5.80;99.90
1355;DHT22;671;48.972;9.276;2022-12-07T00:43:40;5.80;99.90
1355;DHT22;671;48.972;9.276;2022-12-07T00:46:07;5.80;99.90
1355;DHT22;671;48.972;9.276;2022-12-07T00:48:34;5.70;99.90
1355;DHT22;671;48.972;9.276;2022-12-07T00:51:01;5.70;99.90
1355;DHT22;671;48.972;9.276;2022-12-07T00:53:27;5.70;99.90
1355;DHT22;671;48.972;9.276;2022-12-07T00:55:54;5.70;99.90
1355;DHT22;671;48.972;9.276;2022-12-07T00:58:23;5.70;99.90
1355;DHT22;671;48.972;9.276;2022-12-07T01:00:50;5.70;99.90
1355;DHT22;671;48.972;9.276;2022-12-07T01:03:17;5.70;99.90
1355;DHT22;671;48.972;9.276;2022-12-07T01:05:51;5.70;99.90
1355;DHT22;671;48.972;9.276;2022-12-07T01:08:18;5.70;99.90
1355;DHT22;671;48.972;9.276;2022-12-07T01:10:46;5.70;99.90
1355;DHT22;671;48.972;9.276;2022-12-07T01:13:12;5.70;99.90
1355;DHT22;671;48.972;9.276;2022-12-07T01:15:43;5.60;99.90
1355;DHT22;671;48.972;9.276;2022-12-07T01:18:10;5.60;99.90
1355;DHT22;671;48.972;9.276;2022-12-07T01:20:37;5.70;99.90
1355;DHT22;671;48.972;9.276;2022-12-07T01:23:04;5.70;99.90
1355;DHT22;671;48.972;9.276;2022-12-07T01:25:30;5.70;99.90
1355;DHT22;671;48.972;9.276;2022-12-07T01:27:57;5.70;99.90
1355;DHT22;671;48.972;9.276;2022-12-07T01:30:23;5.70;99.90
1355;DHT22;671;48.972;9.276;2022-12-07T01:32:49;5.70;99.90
1355;DHT22;671;48.972;9.276;2022-12-07T01:35:16;5.70;99.90
1355;DHT22;671;48.972;9.276;2022-12-07T01:37:42;5.70;99.90
1355;DHT22;671;48.972;9.276;2022-12-07T01:40:10;5.70;99.90
1355;DHT22;671;48.972;9.276;2022-12-07T01:42:37;5.70;99.90
1355;DHT22;671;48.972;9.276;2022-12-07T01:45:40;5.70;99.90
1355;DHT22;671;48.972;9.276;2022-12-07T01:48:09;5.80;99.90
1355;DHT22;671;48.972;9.276;2022-12-07T01:50:41;5.70;99.90
1355;DHT22;671;48.972;9.276;2022-12-07T01:53:10;5.60;99.90
1355;DHT22;671;48.972;9.276;2022-12-07T01:55:40;5.70;99.90
1355;DHT22;671;48.972;9.276;2022-12-07T01:58:06;5.60;99.90
1355;DHT22;671;48.972;9.276;2022-12-07T02:00:33;5.60;99.90
1355;DHT22;671;48.972;9.276;2022-12-07T02:05:30;5.60;99.90
1355;DHT22;671;48.972;9.276;2022-12-07T02:07:58;5.60;99.90
1355;DHT22;671;48.972;9.276;2022-12-07T02:10:27;5.60;99.90
1355;DHT22;671;48.972;9.276;2022-12-07T02:13:05;5.60;99.90
1355;DHT22;671;48.972;9.276;2022-12-07T02:16:03;5.60;99.90
1355;DHT22;671;48.972;9.276;2022-12-07T02:21:27;5.50;99.90
1355;DHT22;671;48.972;9.276;2022-12-07T02:30:19;5.50;99.90
1355;DHT22;671;48.972;9.276;2022-12-07T02:35:06;5.40;99.90
1355;DHT22;671;48.972;9.276;2022-12-07T02:43:30;5.30;99.90
1355;DHT22;671;48.972;9.276;2022-12-07T02:46:02;5.20;99.90
1355;DHT22;671;48.972;9.276;2022-12-07T02:48:31;5.20;99.90
1355;DHT22;671;48.972;9.276;2022-12-07T02:50:59;5.10;99.90
1355;DHT22;671;48.972;9.276;2022-12-07T02:53:39;5.10;99.90
1355;DHT22;671;48.972;9.276;2022-12-07T03:01:30;4.90;99.90
1355;DHT22;671;48.972;9.276;2022-12-07T03:06:56;4.80;99.90
1355;DHT22;671;48.972;9.276;2022-12-07T03:09:51;4.70;99.90
1355;DHT22;671;48.972;9.276;2022-12-07T03:12:40;4.80;99.90
1355;DHT22;671;48.972;9.276;2022-12-07T03:15:21;4.80;99.90
1355;DHT22;671;48.972;9.276;2022-12-07T03:17:51;4.80;99.90
1355;DHT22;671;48.972;9.276;2022-12-07T03:20:20;4.80;99.90
1355;DHT22;671;48.972;9.276;2022-12-07T03:22:48;4.90;99.90
1355;DHT22;671;48.972;9.276;2022-12-07T03:25:16;4.80;99.90
1355;DHT22;671;48.972;9.276;2022-12-07T03:27:54;4.80;99.90
1355;DHT22;671;48.972;9.276;2022-12-07T03:30:27;4.80;99.90
1355;DHT22;671;48.972;9.276;2022-12-07T03:32:59;4.80;99.90
1355;DHT22;671;48.972;9.276;2022-12-07T03:35:40;4.80;99.90
1355;DHT22;671;48.972;9.276;2022-12-07T03:38:27;4.90;99.90
1355;DHT22;671;48.972;9.276;2022-12-07T03:41:24;5.00;99.90
1355;DHT22;671;48.972;9.276;2022-12-07T03:43:53;5.00;99.90
1355;DHT22;671;48.972;9.276;2022-12-07T03:51:43;5.00;99.90
1355;DHT22;671;48.972;9.276;2022-12-07T03:57:01;4.90;99.90
1355;DHT22;671;48.972;9.276;2022-12-07T03:59:29;4.80;99.90
1355;DHT22;671;48.972;9.276;2022-12-07T04:02:01;4.80;99.90
1355;DHT22;671;48.972;9.276;2022-12-07T04:04:28;4.80;99.90
1355;DHT22;671;48.972;9.276;2022-12-07T04:06:54;4.80;99.90
1355;DHT22;671;48.972;9.276;2022-12-07T04:09:21;4.80;99.90
1355;DHT22;671;48.972;9.276;2022-12-07T04:11:48;4.90;99.90
1355;DHT22;671;48.972;9.276;2022-12-07T04:14:15;4.90;99.90
1355;DHT22;671;48.972;9.276;2022-12-07T04:16:55;4.90;99.90
1355;DHT22;671;48.972;9.276;2022-12-07T04:19:30;4.90;99.90
1355;DHT22;671;48.972;9.276;2022-12-07T04:21:58;5.00;99.90
1355;DHT22;671;48.972;9.276;2022-12-07T04:24:25;4.90;99.90
1355;DHT22;671;48.972;9.276;2022-12-07T04:26:53;4.90;99.90
1355;DHT22;671;48.972;9.276;2022-12-07T04:29:20;4.90;99.90
1355;DHT22;671;48.972;9.276;2022-12-07T04:31:47;4.90;99.90
1355;DHT22;671;48.972;9.276;2022-12-07T04:34:13;4.90;99.90
1355;DHT22;671;48.972;9.276;2022-12-07T04:36:40;4.90;99.90
1355;DHT22;671;48.972;9.276;2022-12-07T04:39:12;4.80;99.90
1355;DHT22;671;48.972;9.276;2022-12-07T04:41:39;4.80;99.90
1355;DHT22;671;48.972;9.276;2022-12-07T04:44:06;4.70;99.90
1355;DHT22;671;48.972;9.276;2022-12-07T04:46:33;4.70;99.90
1355;DHT22;671;48.972;9.276;2022-12-07T04:49:00;4.60;99.90
1355;DHT22;671;48.972;9.276;2022-12-07T04:51:28;4.60;99.90
1355;DHT22;671;48.972;9.276;2022-12-07T04:53:55;4.60;99.90
1355;DHT22;671;48.972;9.276;2022-12-07T04:56:23;4.70;99.90
1355;DHT22;671;48.972;9.276;2022-12-07T04:58:50;4.70;99.90
1355;DHT22;671;48.972;9.276;2022-12-07T05:01:18;4.70;99.90
1355;DHT22;671;48.972;9.276;2022-12-07T05:03:45;4.70;99.90
1355;DHT22;671;48.972;9.276;2022-12-07T05:06:12;4.60;99.90
1355;DHT22;671;48.972;9.276;2022-12-07T05:08:39;4.60;99.90
1355;DHT22;671;48.972;9.276;2022-12-07T05:11:06;4.60;99.90
1355;DHT22;671;48.972;9.276;2022-12-07T05:13:33;4.60;99.90
1355;DHT22;671;48.972;9.276;2022-12-07T05:16:00;4.70;99.90
1355;DHT22;671;48.972;9.276;2022-12-07T05:18:26;4.70;99.90
1355;DHT22;671;48.972;9.276;2022-12-07T05:20:53;4.70;99.90
1355;DHT22;671;48.972;9.276;2022-12-07T05:23:20;4.70;99.90
1355;DHT22;671;48.972;9.276;2022-12-07T05:25:47;4.70;99.90
1355;DHT22;671;48.972;9.276;2022-12-07T05:28:13;4.70;99.90
1355;DHT22;671;48.972;9.276;2022-12-07T05:30:40;4.70;99.90
1355;DHT22;671;48.972;9.276;2022-12-07T05:33:06;4.70;99.90
1355;DHT22;671;48.972;9.276;2022-12-07T05:35:33;4.70;99.90
1355;DHT22;671;48.972;9.276;2022-12-07T05:37:59;4.60;99.90
1355;DHT22;671;48.972;9.276;2022-12-07T05:40:26;4.60;99.90
1355;DHT22;671;48.972;9.276;2022-12-07T05:42:52;4.70;99.90
1355;DHT22;671;48.972;9.276;2022-12-07T05:45:19;4.70;99.90
1355;DHT22;671;48.972;9.276;2022-12-07T05:47:45;4.70;99.90
1355;DHT22;671;48.972;9.276;2022-12-07T05:50:12;4.70;99.90
1355;DHT22;671;48.972;9.276;2022-12-07T05:52:38;4.70;99.90
1355;DHT22;671;48.972;9.276;2022-12-07T05:55:05;4.60;99.90
1355;DHT22;671;48.972;9.276;2022-12-07T05:57:33;4.60;99.90
1355;DHT22;671;48.972;9.276;2022-12-07T05:59:59;4.70;99.90
1355;DHT22;671;48.972;9.276;2022-12-07T06:02:26;4.70;99.90
1355;DHT22;671;48.972;9.276;2022-12-07T06:04:52;4.70;99.90
1355;DHT22;671;48.972;9.276;2022-12-07T06:07:19;4.80;99.90
1355;DHT22;671;48.972;9.276;2022-12-07T06:09:45;4.80;99.90
1355;DHT22;671;48.972;9.276;2022-12-07T06:12:12;4.80;99.90
1355;DHT22;671;48.972;9.276;2022-12-07T06:14:57;4.80;99.90
1355;DHT22;671;48.972;9.276;2022-12-07T06:17:24;4.70;99.90
1355;DHT22;671;48.972;9.276;2022-12-07T06:19:51;4.70;99.90
1355;DHT22;671;48.972;9.276;2022-12-07T06:22:18;4.70;99.90
1355;DHT22;671;48.972;9.276;2022-12-07T06:24:44;4.80;99.90
1355;DHT22;671;48.972;9.276;2022-12-07T06:27:11;4.80;99.90
1355;DHT22;671;48.972;9.276;2022-12-07T06:29:37;4.80;99.90
1355;DHT22;671;48.972;9.276;2022-12-07T06:32:04;4.80;99.90
1355;DHT22;671;48.972;9.276;2022-12-07T06:34:31;4.80;99.90
1355;DHT22;671;48.972;9.276;2022-12-07T06:36:57;4.80;99.90
1355;DHT22;671;48.972;9.276;2022-12-07T06:39:26;4.80;99.90
1355;DHT22;671;48.972;9.276;2022-12-07T06:41:53;4.80;99.90
1355;DHT22;671;48.972;9.276;2022-12-07T06:44:21;4.80;99.90
1355;DHT22;671;48.972;9.276;2022-12-07T06:46:48;4.80;99.90
1355;DHT22;671;48.972;9.276;2022-12-07T06:49:15;4.80;99.90
1355;DHT22;671;48.972;9.276;2022-12-07T06:51:42;4.80;99.90
1355;DHT22;671;48.972;9.276;2022-12-07T06:54:10;4.80;99.90
1355;DHT22;671;48.972;9.276;2022-12-07T06:56:37;4.80;99.90
1355;DHT22;671;48.972;9.276;2022-12-07T06:59:05;4.80;99.90
1355;DHT22;671;48.972;9.276;2022-12-07T07:01:34;4.80;99.90
1355;DHT22;671;48.972;9.276;2022-12-07T07:04:01;4.80;99.90
1355;DHT22;671;48.972;9.276;2022-12-07T07:06:27;4.80;99.90
1355;DHT22;671;48.972;9.276;2022-12-07T07:08:54;4.80;99.90
1355;DHT22;671;48.972;9.276;2022-12-07T07:11:20;4.80;99.90
1355;DHT22;671;48.972;9.276;2022-12-07T07:13:46;4.80;99.90
1355;DHT22;671;48.972;9.276;2022-12-07T07:16:13;4.80;99.90
1355;DHT22;671;48.972;9.276;2022-12-07T07:18:40;4.80;99.90
1355;DHT22;671;48.972;9.276;2022-12-07T07:21:06;4.90;99.90
1355;DHT22;671;48.972;9.276;2022-12-07T07:23:33;4.90;99.90
1355;DHT22;671;48.972;9.276;2022-12-07T07:25:59;4.90;99.90
1355;DHT22;671;48.972;9.276;2022-12-07T07:28:26;4.90;99.90
1355;DHT22;671;48.972;9.276;2022-12-07T07:30:52;4.90;99.90
1355;DHT22;671;48.972;9.276;2022-12-07T07:33:19;4.90;99.90
1355;DHT22;671;48.972;9.276;2022-12-07T07:35:45;4.90;99.90
1355;DHT22;671;48.972;9.276;2022-12-07T07:38:12;4.90;99.90
1355;DHT22;671;48.972;9.276;2022-12-07T07:40:38;5.00;99.90
1355;DHT22;671;48.972;9.276;2022-12-07T07:43:05;5.00;99.90
1355;DHT22;671;48.972;9.276;2022-12-07T07:45:31;5.00;99.90
1355;DHT22;671;48.972;9.276;2022-12-07T07:47:58;5.00;99.90
1355;DHT22;671;48.972;9.276;2022-12-07T07:50:24;5.10;99.90
1355;DHT22;671;48.972;9.276;2022-12-07T07:52:51;5.10;99.90
1355;DHT22;671;48.972;9.276;2022-12-07T07:55:18;5.10;99.90
1355;DHT22;671;48.972;9.276;2022-12-07T07:57:44;5.20;99.90
1355;DHT22;671;48.972;9.276;2022-12-07T08:00:13;5.20;99.90
1355;DHT22;671;48.972;9.276;2022-12-07T08:02:41;5.20;99.90
1355;DHT22;671;48.972;9.276;2022-12-07T08:05:10;5.20;99.90
1355;DHT22;671;48.972;9.276;2022-12-07T08:07:37;5.30;99.90
1355;DHT22;671;48.972;9.276;2022-12-07T08:10:04;5.30;99.90
1355;DHT22;671;48.972;9.276;2022-12-07T08:12:31;5.30;99.90
1355;DHT22;671;48.972;9.276;2022-12-07T08:14:57;5.40;99.90
1355;DHT22;671;48.972;9.276;2022-12-07T08:17:23;5.40;99.90
1355;DHT22;671;48.972;9.276;2022-12-07T08:19:50;5.50;99.90
1355;DHT22;671;48.972;9.276;2022-12-07T08:22:16;5.50;99.90
1355;DHT22;671;48.972;9.276;2022-12-07T08:24:43;5.50;99.90
1355;DHT22;671;48.972;9.276;2022-12-07T08:27:09;5.60;99.90
1355;DHT22;671;48.972;9.276;2022-12-07T08:29:36;5.60;99.90
1355;DHT22;671;48.972;9.276;2022-12-07T08:32:02;5.70;99.90
1355;DHT22;671;48.972;9.276;2022-12-07T08:34:29;5.60;99.90
1355;DHT22;671;48.972;9.276;2022-12-07T08:36:55;5.70;99.90
1355;DHT22;671;48.972;9.276;2022-12-07T08:39:22;5.70;99.90
1355;DHT22;671;48.972;9.276;2022-12-07T08:41:48;5.80;99.90
1355;DHT22;671;48.972;9.276;2022-12-07T08:44:15;5.90;99.90
1355;DHT22;671;48.972;9.276;2022-12-07T08:46:48;5.90;99.90
1355;DHT22;671;48.972;9.276;2022-12-07T08:49:27;6.00;99.90
1355;DHT22;671;48.972;9.276;2022-12-07T08:51:55;6.00;99.90
1355;DHT22;671;48.972;9.276;2022-12-07T08:54:21;6.10;99.90
1355;DHT22;671;48.972;9.276;2022-12-07T08:56:49;6.10;99.90
1355;DHT22;671;48.972;9.276;2022-12-07T08:59:19;6.10;99.90
1355;DHT22;671;48.972;9.276;2022-12-07T09:01:46;6.20;99.90
1355;DHT22;671;48.972;9.276;2022-12-07T09:04:12;6.10;99.90
1355;DHT22;671;48.972;9.276;2022-12-07T09:06:40;6.20;99.90
1355;DHT22;671;48.972;9.276;2022-12-07T09:09:07;6.20;99.90
1355;DHT22;671;48.972;9.276;2022-12-07T09:11:35;6.30;99.90
1355;DHT22;671;48.972;9.276;2022-12-07T09:14:01;6.40;99.90
1355;DHT22;671;48.972;9.276;2022-12-07T09:16:27;6.40;99.90
1355;DHT22;671;48.972;9.276;2022-12-07T09:18:54;6.50;99.90
1355;DHT22;671;48.972;9.276;2022-12-07T09:21:21;6.50;99.90
1355;DHT22;671;48.972;9.276;2022-12-07T09:23:47;6.60;99.90
1355;DHT22;671;48.972;9.276;2022-12-07T09:26:14;6.60;99.90
1355;DHT22;671;48.972;9.276;2022-12-07T09:28:40;6.60;99.90
1355;DHT22;671;48.972;9.276;2022-12-07T09:31:07;6.60;99.90
1355;DHT22;671;48.972;9.276;2022-12-07T09:33:33;6.60;99.90
1355;DHT22;671;48.972;9.276;2022-12-07T09:36:00;6.50;99.90
1355;DHT22;671;48.972;9.276;2022-12-07T09:38:27;6.60;99.90
1355;DHT22;671;48.972;9.276;2022-12-07T09:40:54;6.60;99.90
1355;DHT22;671;48.972;9.276;2022-12-07T09:43:23;6.50;99.90
1355;DHT22;671;48.972;9.276;2022-12-07T09:45:52;6.60;99.90
1355;DHT22;671;48.972;9.276;2022-12-07T09:48:30;6.60;99.90
1355;DHT22;671;48.972;9.276;2022-12-07T09:50:58;6.70;99.90
1355;DHT22;671;48.972;9.276;2022-12-07T09:53:33;6.70;99.90
1355;DHT22;671;48.972;9.276;2022-12-07T09:56:01;6.70;99.90
1355;DHT22;671;48.972;9.276;2022-12-07T09:58:28;6.70;99.90
1355;DHT22;671;48.972;9.276;2022-12-07T10:00:58;6.70;99.90
1355;DHT22;671;48.972;9.276;2022-12-07T10:03:27;6.70;99.90
1355;DHT22;671;48.972;9.276;2022-12-07T10:05:55;6.60;99.90
1355;DHT22;671;48.972;9.276;2022-12-07T10:08:21;6.50;99.90
1355;DHT22;671;48.972;9.276;2022-12-07T10:10:53;6.50;99.90
1355;DHT22;671;48.972;9.276;2022-12-07T10:13:22;6.50;99.90
1355;DHT22;671;48.972;9.276;2022-12-07T10:18:36;6.50;99.90
1355;DHT22;671;48.972;9.276;2022-12-07T10:21:26;6.50;99.90
1355;DHT22;671;48.972;9.276;2022-12-07T10:24:04;6.50;99.90
1355;DHT22;671;48.972;9.276;2022-12-07T10:29:17;6.50;99.90
1355;DHT22;671;48.972;9.276;2022-12-07T10:31:47;6.50;99.90
1355;DHT22;671;48.972;9.276;2022-12-07T10:34:37;6.60;99.90
1355;DHT22;671;48.972;9.276;2022-12-07T10:39:48;6.70;99.90
1355;DHT22;671;48.972;9.276;2022-12-07T10:42:27;6.80;99.90
1355;DHT22;671;48.972;9.276;2022-12-07T10:45:16;6.90;99.90
1355;DHT22;671;48.972;9.276;2022-12-07T10:56:30;7.10;99.90
1355;DHT22;671;48.972;9.276;2022-12-07T11:02:24;7.20;99.90
1355;DHT22;671;48.972;9.276;2022-12-07T11:05:17;7.30;99.90
1355;DHT22;671;48.972;9.276;2022-12-07T11:07:58;7.40;99.90
1355;DHT22;671;48.972;9.276;2022-12-07T11:21:30;7.60;99.90
1355;DHT22;671;48.972;9.276;2022-12-07T11:24:25;7.60;99.90
1355;DHT22;671;48.972;9.276;2022-12-07T11:35:42;7.80;99.90
1355;DHT22;671;48.972;9.276;2022-12-07T11:38:17;7.70;99.90
1355;DHT22;671;48.972;9.276;2022-12-07T11:40:48;7.70;99.90
1355;DHT22;671;48.972;9.276;2022-12-07T11:43:34;7.80;99.90
1355;DHT22;671;48.972;9.276;2022-12-07T11:46:12;7.70;99.90
1355;DHT22;671;48.972;9.276;2022-12-07T11:48:51;7.60;99.90
1355;DHT22;671;48.972;9.276;2022-12-07T11:51:21;7.60;99.90
1355;DHT22;671;48.972;9.276;2022-12-07T11:53:52;7.60;99.90
1355;DHT22;671;48.972;9.276;2022-12-07T11:56:23;7.50;99.90
1355;DHT22;671;48.972;9.276;2022-12-07T12:02:10;7.40;99.90
1355;DHT22;671;48.972;9.276;2022-12-07T12:07:21;7.30;99.90
1355;DHT22;671;48.972;9.276;2022-12-07T12:09:56;7.30;99.90
1355;DHT22;671;48.972;9.276;2022-12-07T12:21:15;7.30;99.90
1355;DHT22;671;48.972;9.276;2022-12-07T12:24:00;7.30;99.90
1355;DHT22;671;48.972;9.276;2022-12-07T12:26:30;7.20;99.90
1355;DHT22;671;48.972;9.276;2022-12-07T12:29:03;7.20;99.90
1355;DHT22;671;48.972;9.276;2022-12-07T12:34:04;7.10;99.90
1355;DHT22;671;48.972;9.276;2022-12-07T12:51:44;7.10;99.90
1355;DHT22;671;48.972;9.276;2022-12-07T12:59:36;7.00;99.90
1355;DHT22;671;48.972;9.276;2022-12-07T13:12:58;6.80;99.90
1355;DHT22;671;48.972;9.276;2022-12-07T13:15:42;6.80;99.90
1355;DHT22;671;48.972;9.276;2022-12-07T13:23:31;7.00;99.90
1355;DHT22;671;48.972;9.276;2022-12-07T13:26:22;7.00;99.90
1355;DHT22;671;48.972;9.276;2022-12-07T13:28:52;7.00;99.90
1355;DHT22;671;48.972;9.276;2022-12-07T13:31:30;7.00;99.90
1355;DHT22;671;48.972;9.276;2022-12-07T13:33:59;7.10;99.90
1355;DHT22;671;48.972;9.276;2022-12-07T13:36:29;7.20;99.90
1355;DHT22;671;48.972;9.276;2022-12-07T13:38:59;7.20;99.90
1355;DHT22;671;48.972;9.276;2022-12-07T13:41:28;7.10;99.90
1355;DHT22;671;48.972;9.276;2022-12-07T13:44:11;7.10;99.90
1355;DHT22;671;48.972;9.276;2022-12-07T13:49:27;7.10;99.90
1355;DHT22;671;48.972;9.276;2022-12-07T13:51:54;7.10;99.90
1355;DHT22;671;48.972;9.276;2022-12-07T13:54:21;7.10;99.90
1355;DHT22;671;48.972;9.276;2022-12-07T13:56:50;7.00;99.90
1355;DHT22;671;48.972;9.276;2022-12-07T13:59:24;7.00;99.90
1355;DHT22;671;48.972;9.276;2022-12-07T14:01:51;7.00;99.90
1355;DHT22;671;48.972;9.276;2022-12-07T14:04:29;7.00;99.90
1355;DHT22;671;48.972;9.276;2022-12-07T14:06:56;7.00;99.90
1355;DHT22;671;48.972;9.276;2022-12-07T14:09:25;7.00;99.90
1355;DHT22;671;48.972;9.276;2022-12-07T14:11:56;6.90;99.90
1355;DHT22;671;48.972;9.276;2022-12-07T14:14:26;6.90;99.90
1355;DHT22;671;48.972;9.276;2022-12-07T14:19:56;6.90;99.90
1355;DHT22;671;48.972;9.276;2022-12-07T14:22:35;6.90;99.90
1355;DHT22;671;48.972;9.276;2022-12-07T14:25:20;6.80;99.90
1355;DHT22;671;48.972;9.276;2022-12-07T14:30:19;6.80;99.90
1355;DHT22;671;48.972;9.276;2022-12-07T14:32:49;6.80;99.90
1355;DHT22;671;48.972;9.276;2022-12-07T14:35:18;6.80;99.90
1355;DHT22;671;48.972;9.276;2022-12-07T14:37:47;6.80;99.90
1355;DHT22;671;48.972;9.276;2022-12-07T14:40:26;6.80;99.90
1355;DHT22;671;48.972;9.276;2022-12-07T14:45:26;6.80;99.90
1355;DHT22;671;48.972;9.276;2022-12-07T14:47:52;6.80;99.90
1355;DHT22;671;48.972;9.276;2022-12-07T14:50:20;6.70;99.90
1355;DHT22;671;48.972;9.276;2022-12-07T14:52:54;6.60;99.90
1355;DHT22;671;48.972;9.276;2022-12-07T14:55:30;6.60;99.90
1355;DHT22;671;48.972;9.276;2022-12-07T14:57:57;6.50;99.90
1355;DHT22;671;48.972;9.276;2022-12-07T15:00:26;6.50;99.90
1355;DHT22;671;48.972;9.276;2022-12-07T15:02:54;6.40;99.90
1355;DHT22;671;48.972;9.276;2022-12-07T15:05:21;6.40;99.90
1355;DHT22;671;48.972;9.276;2022-12-07T15:07:49;6.40;99.90
1355;DHT22;671;48.972;9.276;2022-12-07T15:10:24;6.30;99.90
1355;DHT22;671;48.972;9.276;2022-12-07T15:13:00;6.30;99.90
1355;DHT22;671;48.972;9.276;2022-12-07T15:15:49;6.30;99.90
1355;DHT22;671;48.972;9.276;2022-12-07T15:18:16;6.20;99.90
1355;DHT22;671;48.972;9.276;2022-12-07T15:20:43;6.10;99.90
1355;DHT22;671;48.972;9.276;2022-12-07T15:23:10;6.10;99.90
1355;DHT22;671;48.972;9.276;2022-12-07T15:25:41;6.10;99.90
1355;DHT22;671;48.972;9.276;2022-12-07T15:28:07;6.00;99.90
1355;DHT22;671;48.972;9.276;2022-12-07T15:30:34;6.00;99.90
1355;DHT22;671;48.972;9.276;2022-12-07T15:33:00;6.00;99.90
1355;DHT22;671;48.972;9.276;2022-12-07T15:35:27;6.00;99.90
1355;DHT22;671;48.972;9.276;2022-12-07T15:37:53;6.00;99.90
1355;DHT22;671;48.972;9.276;2022-12-07T15:40:20;6.00;99.90
1355;DHT22;671;48.972;9.276;2022-12-07T15:42:46;6.00;99.90
1355;DHT22;671;48.972;9.276;2022-12-07T15:45:13;6.00;99.90
1355;DHT22;671;48.972;9.276;2022-12-07T15:47:41;5.90;99.90
1355;DHT22;671;48.972;9.276;2022-12-07T15:50:10;5.90;99.90
1355;DHT22;671;48.972;9.276;2022-12-07T15:52:38;6.00;99.90
1355;DHT22;671;48.972;9.276;2022-12-07T15:55:04;5.90;99.90
1355;DHT22;671;48.972;9.276;2022-12-07T15:57:32;5.90;99.90
1355;DHT22;671;48.972;9.276;2022-12-07T15:59:59;5.90;99.90
1355;DHT22;671;48.972;9.276;2022-12-07T16:02:25;5.90;99.90
1355;DHT22;671;48.972;9.276;2022-12-07T16:04:52;5.90;99.90
1355;DHT22;671;48.972;9.276;2022-12-07T16:07:19;5.90;99.90
1355;DHT22;671;48.972;9.276;2022-12-07T16:09:46;5.80;99.90
1355;DHT22;671;48.972;9.276;2022-12-07T16:12:13;5.70;99.90
1355;DHT22;671;48.972;9.276;2022-12-07T16:14:40;5.70;99.90
1355;DHT22;671;48.972;9.276;2022-12-07T16:17:07;5.60;99.90
1355;DHT22;671;48.972;9.276;2022-12-07T16:19:35;5.60;99.90
1355;DHT22;671;48.972;9.276;2022-12-07T16:22:03;5.60;99.90
1355;DHT22;671;48.972;9.276;2022-12-07T16:24:31;5.60;99.90
1355;DHT22;671;48.972;9.276;2022-12-07T16:26:57;5.60;99.90
1355;DHT22;671;48.972;9.276;2022-12-07T16:29:24;5.70;99.90
1355;DHT22;671;48.972;9.276;2022-12-07T16:31:51;5.60;99.90
1355;DHT22;671;48.972;9.276;2022-12-07T16:34:18;5.60;99.90
1355;DHT22;671;48.972;9.276;2022-12-07T16:36:45;5.70;99.90
1355;DHT22;671;48.972;9.276;2022-12-07T16:39:12;5.70;99.90
1355;DHT22;671;48.972;9.276;2022-12-07T16:41:38;5.70;99.90
1355;DHT22;671;48.972;9.276;2022-12-07T16:44:06;5.70;99.90
1355;DHT22;671;48.972;9.276;2022-12-07T16:46:34;5.70;99.90
1355;DHT22;671;48.972;9.276;2022-12-07T16:49:02;5.70;99.90
1355;DHT22;671;48.972;9.276;2022-12-07T16:51:29;5.70;99.90
1355;DHT22;671;48.972;9.276;2022-12-07T16:53:56;5.60;99.90
1355;DHT22;671;48.972;9.276;2022-12-07T16:56:22;5.60;99.90
1355;DHT22;671;48.972;9.276;2022-12-07T16:58:50;5.50;99.90
1355;DHT22;671;48.972;9.276;2022-12-07T17:01:20;5.50;99.90
1355;DHT22;671;48.972;9.276;2022-12-07T17:03:50;5.50;99.90
1355;DHT22;671;48.972;9.276;2022-12-07T17:06:22;5.50;99.90
1355;DHT22;671;48.972;9.276;2022-12-07T17:08:50;5.50;99.90
1355;DHT22;671;48.972;9.276;2022-12-07T17:11:26;5.50;99.90
1355;DHT22;671;48.972;9.276;2022-12-07T17:13:53;5.60;99.90
1355;DHT22;671;48.972;9.276;2022-12-07T17:16:38;5.60;99.90
1355;DHT22;671;48.972;9.276;2022-12-07T17:19:07;5.60;99.90
1355;DHT22;671;48.972;9.276;2022-12-07T17:21:34;5.60;99.90
1355;DHT22;671;48.972;9.276;2022-12-07T17:24:01;5.60;99.90
1355;DHT22;671;48.972;9.276;2022-12-07T17:26:29;5.60;99.90
1355;DHT22;671;48.972;9.276;2022-12-07T17:28:57;5.60;99.90
1355;DHT22;671;48.972;9.276;2022-12-07T17:31:24;5.60;99.90
1355;DHT22;671;48.972;9.276;2022-12-07T17:33:51;5.60;99.90
1355;DHT22;671;48.972;9.276;2022-12-07T17:36:23;5.50;99.90
1355;DHT22;671;48.972;9.276;2022-12-07T17:38:50;5.50;99.90
1355;DHT22;671;48.972;9.276;2022-12-07T17:41:22;5.50;99.90
1355;DHT22;671;48.972;9.276;2022-12-07T17:44:10;5.50;99.90
1355;DHT22;671;48.972;9.276;2022-12-07T17:46:38;5.50;99.90
1355;DHT22;671;48.972;9.276;2022-12-07T17:49:06;5.40;99.90
1355;DHT22;671;48.972;9.276;2022-12-07T17:51:33;5.40;99.90
1355;DHT22;671;48.972;9.276;2022-12-07T17:54:18;5.50;99.90
1355;DHT22;671;48.972;9.276;2022-12-07T17:56:45;5.40;99.90
1355;DHT22;671;48.972;9.276;2022-12-07T17:59:12;5.40;99.90
1355;DHT22;671;48.972;9.276;2022-12-07T18:01:39;5.40;99.90
1355;DHT22;671;48.972;9.276;2022-12-07T18:04:06;5.40;99.90
1355;DHT22;671;48.972;9.276;2022-12-07T18:06:33;5.40;99.90
1355;DHT22;671;48.972;9.276;2022-12-07T18:09:00;5.50;99.90
1355;DHT22;671;48.972;9.276;2022-12-07T18:11:27;5.40;99.90
1355;DHT22;671;48.972;9.276;2022-12-07T18:13:53;5.40;99.90
1355;DHT22;671;48.972;9.276;2022-12-07T18:16:22;5.40;99.90
1355;DHT22;671;48.972;9.276;2022-12-07T18:18:50;5.40;99.90
1355;DHT22;671;48.972;9.276;2022-12-07T18:21:21;5.40;99.90
1355;DHT22;671;48.972;9.276;2022-12-07T18:23:51;5.40;99.90
1355;DHT22;671;48.972;9.276;2022-12-07T18:26:20;5.40;99.90
1355;DHT22;671;48.972;9.276;2022-12-07T18:28:46;5.40;99.90
1355;DHT22;671;48.972;9.276;2022-12-07T18:31:13;5.40;99.90
1355;DHT22;671;48.972;9.276;2022-12-07T18:33:40;5.40;99.90
1355;DHT22;671;48.972;9.276;2022-12-07T18:36:08;5.40;99.90
1355;DHT22;671;48.972;9.276;2022-12-07T18:38:35;5.40;99.90
1355;DHT22;671;48.972;9.276;2022-12-07T18:41:02;5.40;99.90
1355;DHT22;671;48.972;9.276;2022-12-07T18:43:29;5.40;99.90
1355;DHT22;671;48.972;9.276;2022-12-07T18:45:55;5.30;99.90
1355;DHT22;671;48.972;9.276;2022-12-07T18:48:22;5.30;99.90
1355;DHT22;671;48.972;9.276;2022-12-07T18:50:59;5.30;99.90
1355;DHT22;671;48.972;9.276;2022-12-07T18:53:26;5.30;99.90
1355;DHT22;671;48.972;9.276;2022-12-07T18:56:17;5.30;99.90
1355;DHT22;671;48.972;9.276;2022-12-07T18:58:52;5.30;99.90
1355;DHT22;671;48.972;9.276;2022-12-07T19:01:38;5.30;99.90
1355;DHT22;671;48.972;9.276;2022-12-07T19:04:05;5.30;99.90
1355;DHT22;671;48.972;9.276;2022-12-07T19:06:31;5.30;99.90
1355;DHT22;671;48.972;9.276;2022-12-07T19:08:58;5.30;99.90
1355;DHT22;671;48.972;9.276;2022-12-07T19:11:30;5.30;99.90
1355;DHT22;671;48.972;9.276;2022-12-07T19:14:28;5.30;99.90